createdAt,value
2019-05-19T00:03:55.197Z,96851.23
2019-05-19T00:09:00.520Z,96855.61
2019-05-19T00:14:06.771Z,96861.96
2019-05-19T00:19:25.535Z,96855.39
2019-05-19T00:24:18.066Z,96874.92
2019-05-19T00:29:22.719Z,96877.75
2019-05-19T00:34:27.551Z,96875.86
2019-05-19T00:39:32.173Z,96867.86
2019-05-19T00:44:36.832Z,96874.03
2019-05-19T00:49:41.875Z,96874.30
2019-05-19T00:54:46.727Z,96861.70
2019-05-19T00:59:51.469Z,96864.38
2019-05-19T01:04:56.215Z,96870.97
2019-05-19T01:10:00.958Z,96877.41
2019-05-19T01:15:07.240Z,96879.70
2019-05-19T01:20:11.979Z,96880.11
2019-05-19T01:25:17.343Z,96891.06
2019-05-19T01:30:22.103Z,96894.07
2019-05-19T01:35:26.833Z,96892.91
2019-05-19T01:40:33.197Z,96893.63
2019-05-19T01:45:37.952Z,96892.55
2019-05-19T01:50:42.590Z,96887.70
2019-05-19T01:55:47.336Z,96893.76
2019-05-19T02:00:51.980Z,96891.45
2019-05-19T02:05:56.722Z,96885.09
2019-05-19T02:11:01.460Z,96879.12
2019-05-19T02:16:06.215Z,96874.36
2019-05-19T02:21:10.951Z,96882.63
2019-05-19T02:26:15.687Z,96886.41
2019-05-19T02:31:20.438Z,96900.83
2019-05-19T02:36:25.182Z,96896.23
2019-05-19T02:41:29.925Z,96890.44
2019-05-19T02:46:34.677Z,96888.45
2019-05-19T02:51:39.755Z,96891.91
2019-05-19T02:56:44.768Z,96896.19
2019-05-19T03:02:09.376Z,96896.22
2019-05-19T03:07:14.023Z,96903.66
2019-05-19T03:12:18.662Z,96906.70
2019-05-19T03:17:23.233Z,96909.16
2019-05-19T03:22:27.941Z,96919.32
2019-05-19T03:27:32.506Z,96924.36
2019-05-19T03:32:38.861Z,96939.02
2019-05-19T03:37:43.518Z,96943.19
2019-05-19T03:42:49.721Z,96953.16
2019-05-19T03:47:54.286Z,96955.55
2019-05-19T03:52:59.118Z,96965.66
2019-05-19T03:58:03.909Z,96958.33
2019-05-19T04:03:08.652Z,96957.84
2019-05-19T04:08:13.398Z,96953.59
2019-05-19T04:13:18.040Z,96941.15
2019-05-19T04:18:22.771Z,96941.75
2019-05-19T04:23:27.527Z,96939.91
2019-05-19T04:28:32.165Z,96939.16
2019-05-19T04:33:37.010Z,96947.34
2019-05-19T04:38:41.660Z,96950.56
2019-05-19T04:43:46.399Z,96946.17
2019-05-19T04:48:51.239Z,96940.64
2019-05-19T04:53:57.010Z,96940.44
2019-05-19T04:59:01.938Z,96936.74
2019-05-19T05:04:06.597Z,96938.84
2019-05-19T05:09:11.547Z,96928.23
2019-05-19T05:14:17.934Z,96925.14
2019-05-19T05:19:22.778Z,96924.63
2019-05-19T05:24:28.721Z,96931.02
2019-05-19T05:29:33.697Z,96946.86
2019-05-19T05:34:40.078Z,96937.47
2019-05-19T05:39:45.501Z,96932.80
2019-05-19T05:44:50.281Z,96936.09
2019-05-19T05:49:55.027Z,96938.36
2019-05-19T05:54:59.664Z,96924.41
2019-05-19T06:00:06.961Z,96931.00
2019-05-19T06:05:11.873Z,96931.63
2019-05-19T06:10:16.591Z,96921.48
2019-05-19T06:15:21.300Z,96916.11
2019-05-19T06:20:26.357Z,96916.53
2019-05-19T06:25:31.450Z,96917.00
2019-05-19T06:30:36.455Z,96913.16
2019-05-19T06:35:41.202Z,96902.94
2019-05-19T06:40:46.050Z,96898.28
2019-05-19T06:45:51.100Z,96902.44
2019-05-19T06:50:56.249Z,96905.05
2019-05-19T06:56:01.206Z,96901.62
2019-05-19T07:01:06.174Z,96895.23
2019-05-19T07:06:13.337Z,96895.48
2019-05-19T07:11:21.371Z,96896.42
2019-05-19T07:16:26.264Z,96884.67
2019-05-19T07:21:33.786Z,96884.63
2019-05-19T07:26:38.942Z,96876.05
2019-05-19T07:31:43.833Z,96877.15
2019-05-19T07:36:48.587Z,96865.88
2019-05-19T07:41:53.843Z,96856.30
2019-05-19T07:46:59.003Z,96850.18
2019-05-19T07:52:03.880Z,96841.45
2019-05-19T07:57:08.493Z,96840.57
2019-05-19T08:02:13.220Z,96840.72
2019-05-19T08:07:18.056Z,96829.73
2019-05-19T08:12:24.280Z,96822.30
2019-05-19T08:17:29.086Z,96819.24
2019-05-19T08:22:33.942Z,96821.93
2019-05-19T08:27:38.986Z,96810.83
2019-05-19T08:32:44.566Z,96816.25
2019-05-19T08:37:50.176Z,96804.67
2019-05-19T08:42:54.867Z,96808.97
2019-05-19T08:47:59.602Z,96813.11
2019-05-19T08:53:04.627Z,96807.45
2019-05-19T08:58:09.416Z,96813.08
2019-05-19T09:03:14.250Z,96809.83
2019-05-19T09:08:18.993Z,96799.60
2019-05-19T09:13:24.758Z,96805.80
2019-05-19T09:18:29.990Z,96802.78
2019-05-19T09:23:34.963Z,96793.88
2019-05-19T09:28:39.947Z,96791.34
2019-05-19T09:33:44.837Z,96786.92
2019-05-19T09:38:50.322Z,96775.38
2019-05-19T09:43:55.267Z,96763.67
2019-05-19T09:49:18.339Z,96758.84
2019-05-19T09:54:23.097Z,96746.36
2019-05-19T09:59:28.474Z,96745.33
2019-05-19T10:04:33.169Z,96736.39
2019-05-19T10:10:01.312Z,96730.55
2019-05-19T10:15:07.143Z,96729.27
2019-05-19T10:20:11.896Z,96729.22
2019-05-19T10:25:22.241Z,96720.98
2019-05-19T10:30:25.177Z,96710.30
2019-05-19T10:35:29.810Z,96705.80
2019-05-19T10:40:34.659Z,96701.16
2019-05-19T10:45:40.121Z,96692.52
2019-05-19T10:50:44.766Z,96679.13
2019-05-19T10:55:49.510Z,96680.55
2019-05-19T11:00:54.260Z,96665.63
2019-05-19T11:05:58.998Z,96665.61
2019-05-19T11:11:03.640Z,96659.61
2019-05-19T11:16:08.274Z,96657.22
2019-05-19T11:21:12.927Z,96646.16
2019-05-19T11:26:17.669Z,96641.48
2019-05-19T11:31:22.262Z,96640.30
2019-05-19T11:36:28.371Z,96632.41
2019-05-19T11:41:33.134Z,96628.11
2019-05-19T11:46:37.874Z,96630.16
2019-05-19T11:51:42.724Z,96626.14
2019-05-19T11:56:47.353Z,96620.94
2019-05-19T12:01:53.429Z,96613.14
2019-05-19T12:06:58.295Z,96607.41
2019-05-19T12:12:03.043Z,96605.83
2019-05-19T12:17:08.095Z,96602.67
2019-05-19T12:22:13.382Z,96597.11
2019-05-19T12:27:18.082Z,96595.68
2019-05-19T12:32:22.830Z,96608.68
2019-05-19T12:37:28.071Z,96611.98
2019-05-19T12:42:33.369Z,96606.98
2019-05-19T12:47:39.006Z,96604.34
2019-05-19T12:52:45.082Z,96598.44
2019-05-19T12:57:50.525Z,96589.62
2019-05-19T13:02:55.495Z,96592.91
2019-05-19T13:08:00.240Z,96586.34
2019-05-19T13:13:05.391Z,96571.10
2019-05-19T13:18:10.256Z,96550.17
2019-05-19T13:23:14.981Z,96568.59
2019-05-19T13:28:19.724Z,96567.89
2019-05-19T13:33:24.567Z,96566.29
2019-05-19T13:38:29.210Z,96545.70
2019-05-19T13:43:33.974Z,96523.66
2019-05-19T13:48:38.613Z,96544.34
2019-05-19T13:53:43.345Z,96541.64
2019-05-19T13:58:48.326Z,96539.88
2019-05-19T14:03:53.038Z,96543.92
2019-05-19T14:08:57.781Z,96534.43
2019-05-19T14:14:02.630Z,96519.25
2019-05-19T14:19:07.588Z,96530.19
2019-05-19T14:24:13.870Z,96515.16
2019-05-19T14:29:18.609Z,96505.25
2019-05-19T14:34:24.472Z,96500.52
2019-05-19T14:39:29.332Z,96491.77
2019-05-19T14:44:36.559Z,96485.24
2019-05-19T14:49:47.253Z,96490.98
2019-05-19T14:54:57.665Z,96489.13
2019-05-19T15:00:02.837Z,96487.10
2019-05-19T15:05:09.218Z,96484.63
2019-05-19T15:10:14.075Z,96479.67
2019-05-19T15:15:18.809Z,96480.67
2019-05-19T15:20:25.755Z,96480.67
2019-05-19T15:25:31.504Z,96476.06
2019-05-19T15:30:38.377Z,96460.52
2019-05-19T15:35:43.418Z,96454.69
2019-05-19T15:40:48.171Z,96461.19
2019-05-19T15:45:54.035Z,96466.47
2019-05-19T15:50:58.791Z,96465.89
2019-05-19T15:56:07.112Z,96465.41
2019-05-19T16:01:11.766Z,96448.83
2019-05-19T16:06:16.490Z,96442.58
2019-05-19T16:11:21.244Z,96439.72
2019-05-19T16:16:26.497Z,96434.47
2019-05-19T16:21:31.338Z,96435.80
2019-05-19T16:26:36.608Z,96432.86
2019-05-19T16:31:42.982Z,96418.73
2019-05-19T16:36:48.749Z,96410.53
2019-05-19T16:41:53.404Z,96418.52
2019-05-19T16:46:58.406Z,96415.73
2019-05-19T16:52:03.409Z,96417.07
2019-05-19T16:57:08.613Z,96404.97
2019-05-19T17:02:13.261Z,96406.51
2019-05-19T17:07:18.547Z,96411.61
2019-05-19T17:12:23.244Z,96402.48
2019-05-19T17:17:28.338Z,96402.24
2019-05-19T17:22:34.004Z,96394.69
2019-05-19T17:27:39.299Z,96386.95
2019-05-19T17:32:44.427Z,96390.63
2019-05-19T17:37:49.160Z,96393.12
2019-05-19T17:42:53.925Z,96395.20
2019-05-19T17:48:09.450Z,96398.66
2019-05-19T17:53:06.362Z,96395.38
2019-05-19T17:58:11.313Z,96393.05
2019-05-19T18:03:17.440Z,96390.11
2019-05-19T18:08:22.136Z,96387.36
2019-05-19T18:13:26.911Z,96383.48
2019-05-19T18:18:32.255Z,96388.45
2019-05-19T18:23:37.386Z,96385.75
2019-05-19T18:28:42.270Z,96372.30
2019-05-19T18:33:48.366Z,96378.52
2019-05-19T18:38:53.768Z,96368.62
2019-05-19T18:43:58.612Z,96374.84
2019-05-19T18:49:03.375Z,96373.68
2019-05-19T18:54:08.207Z,96367.48
2019-05-19T18:59:13.153Z,96358.52
2019-05-19T19:04:17.926Z,96373.84
2019-05-19T19:09:22.968Z,96378.17
2019-05-19T19:14:27.842Z,96378.41
2019-05-19T19:19:32.767Z,96368.94
2019-05-19T19:24:38.665Z,96387.98
2019-05-19T19:29:43.765Z,96377.71
2019-05-19T19:34:48.721Z,96374.72
2019-05-19T19:39:53.358Z,96379.16
2019-05-19T19:44:58.206Z,96384.38
2019-05-19T19:50:03.050Z,96386.83
2019-05-19T19:55:09.127Z,96396.09
2019-05-19T20:00:18.219Z,96404.36
2019-05-19T20:05:21.071Z,96398.16
2019-05-19T20:10:25.818Z,96402.98
2019-05-19T20:15:30.779Z,96404.11
2019-05-19T20:20:35.813Z,96405.02
2019-05-19T20:25:40.444Z,96430.72
2019-05-19T20:30:45.252Z,96430.71
2019-05-19T20:35:50.053Z,96436.52
2019-05-19T20:40:54.779Z,96439.58
2019-05-19T20:45:59.456Z,96448.82
2019-05-19T20:51:04.356Z,96454.23
2019-05-19T20:56:09.126Z,96461.52
2019-05-19T21:01:13.922Z,96472.95
2019-05-19T21:06:18.638Z,96480.27
2019-05-19T21:11:23.352Z,96472.80
2019-05-19T21:16:28.102Z,96470.09
2019-05-19T21:21:42.671Z,96482.50
2019-05-19T21:26:47.575Z,96487.77
2019-05-19T21:31:52.266Z,96489.95
2019-05-19T21:36:57.011Z,96495.67
2019-05-19T21:42:01.789Z,96507.53
2019-05-19T21:47:06.608Z,96493.38
2019-05-19T21:52:11.299Z,96506.84
2019-05-19T21:57:16.087Z,96516.45
2019-05-19T22:02:20.772Z,96515.73
2019-05-19T22:07:30.083Z,96516.05
2019-05-19T22:12:34.823Z,96519.34
2019-05-19T22:17:39.572Z,96516.58
2019-05-19T22:22:44.311Z,96507.34
2019-05-19T22:27:50.793Z,96514.26
2019-05-19T22:32:55.544Z,96511.80
2019-05-19T22:38:00.458Z,96517.17
2019-05-19T22:43:05.243Z,96512.34
2019-05-19T22:48:09.964Z,96518.87
2019-05-19T22:53:14.820Z,96514.20
2019-05-19T22:58:19.577Z,96518.59
2019-05-19T23:03:24.415Z,96524.69
2019-05-19T23:08:29.060Z,96532.42
2019-05-19T23:13:35.030Z,96538.44
2019-05-19T23:18:39.871Z,96543.00
2019-05-19T23:23:44.618Z,96539.48
2019-05-19T23:28:49.377Z,96556.00
2019-05-19T23:33:54.109Z,96561.86
2019-05-19T23:38:58.959Z,96555.63
2019-05-19T23:44:03.794Z,96552.08
2019-05-19T23:49:08.540Z,96563.78
2019-05-19T23:54:13.282Z,96566.02
2019-05-19T23:59:18.030Z,96565.69
